createdAt,value
2022-09-13T00:01:06.021Z,2.27
2022-09-13T00:03:11.816Z,2.20
2022-09-13T00:05:13.642Z,2.10
2022-09-13T00:07:15.331Z,2.10
2022-09-13T00:09:17.044Z,2.07
2022-09-13T00:11:24.534Z,2.40
2022-09-13T00:13:26.165Z,2.03
2022-09-13T00:15:28.154Z,2.27
2022-09-13T00:17:29.768Z,2.07
2022-09-13T00:19:31.424Z,2.00
2022-09-13T00:21:33.122Z,2.17
2022-09-13T00:23:37.138Z,1.90
2022-09-13T00:25:39.229Z,2.20
2022-09-13T00:27:41.118Z,2.30
2022-09-13T00:29:42.801Z,2.07
2022-09-13T00:31:44.510Z,1.80
2022-09-13T00:33:46.473Z,1.93
2022-09-13T00:35:48.138Z,1.97
2022-09-13T00:37:51.238Z,2.10
2022-09-13T00:39:52.937Z,2.30
2022-09-13T00:41:54.792Z,2.27
2022-09-13T00:43:59.298Z,2.47
2022-09-13T00:46:01.148Z,1.93
2022-09-13T00:48:07.463Z,1.90
2022-09-13T00:50:16.759Z,2.07
2022-09-13T00:52:22.558Z,2.20
2022-09-13T00:54:29.332Z,1.80
2022-09-13T00:56:39.578Z,2.33
2022-09-13T00:58:52.376Z,1.87
2022-09-13T01:00:56.694Z,2.30
2022-09-13T01:03:04.701Z,2.00
2022-09-13T01:05:07.190Z,1.77
2022-09-13T01:07:13.691Z,2.30
2022-09-13T01:09:15.736Z,2.33
2022-09-13T01:11:25.534Z,2.00
2022-09-13T01:13:32.205Z,2.33
2022-09-13T01:15:33.843Z,2.00
2022-09-13T01:17:36.970Z,2.13
2022-09-13T01:19:38.837Z,2.13
2022-09-13T01:22:01.754Z,2.10
2022-09-13T01:24:18.203Z,1.77
2022-09-13T01:26:36.465Z,1.83
2022-09-13T01:28:51.999Z,2.10
2022-09-13T01:31:20.211Z,1.97
2022-09-13T01:33:54.091Z,1.80
2022-09-13T01:36:37.606Z,2.03
2022-09-13T01:38:51.430Z,2.30
2022-09-13T01:41:01.854Z,1.90
2022-09-13T01:43:33.555Z,2.00
2022-09-13T01:45:51.149Z,2.00
2022-09-13T01:47:58.374Z,2.23
2022-09-13T01:50:20.293Z,2.50
2022-09-13T01:52:44.180Z,2.03
2022-09-13T01:54:48.742Z,1.87
2022-09-13T01:57:29.537Z,2.20
2022-09-13T01:59:39.629Z,2.13
2022-09-13T02:01:51.254Z,2.07
2022-09-13T02:04:24.434Z,2.20
2022-09-13T02:06:51.465Z,2.07
2022-09-13T02:09:01.721Z,1.80
2022-09-13T02:11:09.558Z,2.30
2022-09-13T02:13:17.046Z,2.50
2022-09-13T02:15:35.040Z,2.27
2022-09-13T02:17:41.471Z,2.00
2022-09-13T02:20:03.740Z,2.00
2022-09-13T02:22:08.305Z,2.47
2022-09-13T02:24:16.812Z,2.30
2022-09-13T02:26:21.278Z,1.90
2022-09-13T02:28:31.583Z,2.13
2022-09-13T02:30:40.275Z,2.00
2022-09-13T02:33:08.681Z,1.90
2022-09-13T02:35:25.487Z,2.67
2022-09-13T02:37:32.297Z,2.10
2022-09-13T02:39:37.897Z,2.53
2022-09-13T02:41:46.228Z,2.00
2022-09-13T02:43:53.794Z,2.27
2022-09-13T02:46:08.169Z,2.07
2022-09-13T02:48:18.229Z,2.20
2022-09-13T02:50:44.105Z,2.30
2022-09-13T02:53:13.357Z,1.70
2022-09-13T02:55:45.802Z,2.17
2022-09-13T02:57:47.402Z,1.70
2022-09-13T02:59:49.581Z,1.93
2022-09-13T03:01:58.197Z,1.83
2022-09-13T03:03:59.985Z,1.67
2022-09-13T03:06:02.470Z,2.00
2022-09-13T03:08:05.793Z,1.50
2022-09-13T03:10:11.282Z,1.67
2022-09-13T03:12:22.663Z,1.50
2022-09-13T03:14:50.103Z,1.50
2022-09-13T03:17:22.466Z,1.53
2022-09-13T03:19:36.074Z,1.50
2022-09-13T03:21:43.410Z,1.57
2022-09-13T03:24:28.881Z,1.60
2022-09-13T03:26:42.542Z,1.30
2022-09-13T03:28:59.930Z,1.70
2022-09-13T03:31:21.393Z,1.90
2022-09-13T03:33:31.552Z,1.90
2022-09-13T03:36:09.591Z,1.70
2022-09-13T03:38:16.687Z,1.50
2022-09-13T03:40:22.518Z,1.40
2022-09-13T03:42:42.751Z,1.57
2022-09-13T03:44:48.959Z,2.00
2022-09-13T03:46:57.221Z,1.77
2022-09-13T03:49:05.031Z,1.70
2022-09-13T03:51:07.525Z,1.53
2022-09-13T03:53:15.281Z,1.40
2022-09-13T03:55:22.151Z,1.70
2022-09-13T03:57:23.812Z,1.60
2022-09-13T03:59:26.012Z,1.80
2022-09-13T04:01:27.986Z,1.67
2022-09-13T04:03:29.827Z,1.70
2022-09-13T04:05:31.453Z,1.67
2022-09-13T04:07:33.242Z,1.40
2022-09-13T04:09:34.854Z,1.97
2022-09-13T04:11:36.549Z,1.63
2022-09-13T04:13:38.641Z,2.00
2022-09-13T04:15:40.278Z,1.57
2022-09-13T04:17:41.975Z,1.70
2022-09-13T04:19:47.232Z,1.60
2022-09-13T04:21:50.554Z,1.60
2022-09-13T04:23:52.170Z,1.97
2022-09-13T04:25:54.054Z,2.30
2022-09-13T04:27:56.733Z,1.77
2022-09-13T04:29:58.374Z,2.00
2022-09-13T04:32:00.556Z,1.83
2022-09-13T04:34:03.250Z,2.17
2022-09-13T04:36:05.172Z,2.20
2022-09-13T04:38:07.754Z,2.07
2022-09-13T04:40:09.877Z,1.80
2022-09-13T04:42:11.814Z,1.77
2022-09-13T04:44:14.354Z,1.97
2022-09-13T04:46:16.436Z,1.73
2022-09-13T04:48:18.167Z,2.13
2022-09-13T04:50:21.674Z,2.10
2022-09-13T04:52:23.785Z,1.90
2022-09-13T04:54:25.489Z,1.87
2022-09-13T04:56:27.751Z,2.07
2022-09-13T04:58:29.706Z,1.90
2022-09-13T05:00:32.526Z,2.07
2022-09-13T05:02:34.949Z,2.13
2022-09-13T05:04:36.598Z,2.00
2022-09-13T05:06:38.527Z,1.80
2022-09-13T05:08:40.782Z,1.80
2022-09-13T05:10:42.574Z,2.20
2022-09-13T05:12:44.285Z,2.47
2022-09-13T05:14:46.254Z,2.00
2022-09-13T05:16:47.878Z,1.67
2022-09-13T05:18:49.725Z,1.90
2022-09-13T05:20:55.345Z,1.80
2022-09-13T05:22:56.961Z,1.70
2022-09-13T05:24:58.694Z,2.00
2022-09-13T05:27:00.489Z,1.80
2022-09-13T05:29:02.584Z,2.53
2022-09-13T05:31:20.075Z,1.33
2022-09-13T05:33:21.912Z,1.97
2022-09-13T05:35:23.586Z,1.80
2022-09-13T05:37:25.262Z,1.73
2022-09-13T05:39:34.104Z,1.50
2022-09-13T05:41:46.045Z,1.50
2022-09-13T05:43:48.110Z,1.83
2022-09-13T05:45:50.397Z,1.97
2022-09-13T05:47:52.550Z,1.90
2022-09-13T05:50:11.830Z,2.30
2022-09-13T05:52:15.806Z,2.43
2022-09-13T05:54:17.592Z,1.90
2022-09-13T05:56:22.213Z,2.30
2022-09-13T05:58:23.872Z,1.70
2022-09-13T06:00:25.490Z,1.60
2022-09-13T06:02:27.329Z,1.97
2022-09-13T06:04:29.066Z,2.10
2022-09-13T06:06:30.722Z,2.00
2022-09-13T06:08:33.978Z,2.03
2022-09-13T06:10:35.701Z,2.03
2022-09-13T06:12:38.175Z,2.00
2022-09-13T06:14:39.940Z,1.70
2022-09-13T06:16:41.590Z,2.07
2022-09-13T06:18:43.479Z,1.77
2022-09-13T06:20:45.685Z,1.80
2022-09-13T06:22:50.305Z,1.87
2022-09-13T06:24:52.154Z,2.13
2022-09-13T06:26:54.268Z,1.63
2022-09-13T06:28:58.144Z,1.63
2022-09-13T06:31:01.408Z,1.70
2022-09-13T06:33:03.205Z,1.67
2022-09-13T06:35:05.302Z,1.57
2022-09-13T06:37:06.927Z,1.80
2022-09-13T06:39:08.753Z,2.10
2022-09-13T06:41:13.326Z,2.10
2022-09-13T06:43:15.709Z,2.70
2022-09-13T06:45:19.064Z,2.03
2022-09-13T06:47:20.695Z,2.33
2022-09-13T06:49:22.378Z,1.70
2022-09-13T06:51:25.629Z,1.87
2022-09-13T06:53:28.826Z,2.23
2022-09-13T06:55:30.507Z,2.00
2022-09-13T06:57:32.097Z,1.70
2022-09-13T06:59:34.966Z,2.00
2022-09-13T07:01:44.841Z,1.90
2022-09-13T07:03:48.774Z,1.90
2022-09-13T07:05:50.368Z,1.90
2022-09-13T07:07:52.046Z,2.80
2022-09-13T07:09:53.690Z,2.00
2022-09-13T07:11:56.606Z,2.00
2022-09-13T07:13:59.450Z,1.90
2022-09-13T07:16:11.711Z,2.13
2022-09-13T07:18:13.467Z,1.90
2022-09-13T07:20:15.889Z,1.90
2022-09-13T07:22:17.877Z,2.00
2022-09-13T07:24:20.625Z,1.70
2022-09-13T07:26:22.922Z,1.90
2022-09-13T07:28:27.396Z,1.70
2022-09-13T07:30:29.221Z,1.57
2022-09-13T07:32:32.990Z,1.90
2022-09-13T07:34:34.809Z,2.20
2022-09-13T07:36:36.872Z,2.10
2022-09-13T07:38:41.368Z,1.90
2022-09-13T07:40:43.854Z,2.00
2022-09-13T07:42:45.445Z,1.70
2022-09-13T07:44:47.105Z,2.47
2022-09-13T07:46:48.929Z,2.17
2022-09-13T07:48:53.613Z,1.90
2022-09-13T07:51:10.005Z,2.03
2022-09-13T07:53:11.653Z,2.60
2022-09-13T07:55:13.351Z,2.30
2022-09-13T07:57:15.095Z,2.00
2022-09-13T07:59:17.951Z,2.38
2022-09-13T08:01:22.711Z,2.00
2022-09-13T08:03:24.461Z,1.85
2022-09-13T08:05:26.088Z,3.55
2022-09-13T08:07:27.681Z,1.83
2022-09-13T08:09:29.341Z,1.92
2022-09-13T08:11:39.368Z,2.22
2022-09-13T08:13:41.055Z,1.60
2022-09-13T08:15:43.441Z,1.75
2022-09-13T08:17:45.061Z,1.85
2022-09-13T08:19:46.691Z,2.15
2022-09-13T08:21:49.046Z,1.70
2022-09-13T08:23:54.703Z,2.13
2022-09-13T08:26:01.625Z,2.00
2022-09-13T08:28:17.021Z,2.38
2022-09-13T08:30:18.744Z,2.67
2022-09-13T08:32:20.475Z,1.80
2022-09-13T08:34:22.361Z,1.80
2022-09-13T08:36:25.989Z,1.70
2022-09-13T08:38:28.632Z,1.70
2022-09-13T08:40:34.458Z,1.70
2022-09-13T08:42:51.231Z,1.60
2022-09-13T08:44:56.173Z,1.67
2022-09-13T08:47:04.651Z,1.70
2022-09-13T08:49:16.242Z,1.73
2022-09-13T08:51:47.200Z,1.67
2022-09-13T08:53:50.390Z,1.70
2022-09-13T08:55:52.078Z,1.90
2022-09-13T08:58:12.709Z,1.70
2022-09-13T09:00:40.134Z,1.60
2022-09-13T09:03:08.630Z,1.80
2022-09-13T09:05:23.746Z,2.00
2022-09-13T09:07:31.141Z,1.90
2022-09-13T09:09:39.953Z,1.70
2022-09-13T09:11:59.460Z,1.92
2022-09-13T09:14:11.573Z,1.70
2022-09-13T09:16:35.279Z,1.70
2022-09-13T09:18:40.426Z,1.50
2022-09-13T09:20:46.098Z,1.70
2022-09-13T09:22:49.161Z,1.60
2022-09-13T09:24:54.908Z,1.60
2022-09-13T09:26:58.251Z,1.83
2022-09-13T09:29:28.574Z,1.42
2022-09-13T09:31:52.161Z,2.08
2022-09-13T09:33:55.137Z,1.80
2022-09-13T09:36:07.201Z,1.90
2022-09-13T09:38:43.852Z,1.90
2022-09-13T09:40:45.951Z,1.77
2022-09-13T09:42:49.438Z,1.58
2022-09-13T09:45:06.672Z,1.77
2022-09-13T09:47:30.244Z,1.80
2022-09-13T09:49:54.262Z,1.70
2022-09-13T09:51:57.220Z,1.92
2022-09-13T09:54:05.146Z,1.70
2022-09-13T09:56:20.416Z,1.80
2022-09-13T09:58:43.428Z,1.52
2022-09-13T10:00:57.125Z,1.80
2022-09-13T10:03:18.313Z,1.63
2022-09-13T10:05:22.912Z,1.40
2022-09-13T10:07:34.461Z,1.83
2022-09-13T10:09:37.832Z,1.77
2022-09-13T10:11:57.743Z,1.60
2022-09-13T10:14:02.127Z,2.53
2022-09-13T10:16:06.394Z,1.90
2022-09-13T10:18:42.306Z,1.80
2022-09-13T10:20:38.333Z,2.55
2022-09-13T10:22:40.237Z,2.70
2022-09-13T10:24:42.155Z,3.03
2022-09-13T10:26:44.050Z,3.38
2022-09-13T10:29:07.513Z,2.83
2022-09-13T10:31:16.421Z,2.20
2022-09-13T10:33:30.251Z,2.17
2022-09-13T10:35:33.451Z,1.70
2022-09-13T10:37:36.230Z,1.60
2022-09-13T10:39:50.043Z,2.53
2022-09-13T10:42:03.852Z,2.05
2022-09-13T10:44:22.154Z,1.88
2022-09-13T10:46:25.110Z,2.03
2022-09-13T10:48:30.068Z,1.55
2022-09-13T10:50:32.145Z,1.40
2022-09-13T10:52:38.449Z,1.50
2022-09-13T10:54:42.447Z,1.30
2022-09-13T10:56:45.268Z,1.45
2022-09-13T10:58:46.959Z,1.70
2022-09-13T11:01:07.309Z,1.25
2022-09-13T11:03:51.253Z,1.88
2022-09-13T11:06:04.694Z,1.60
2022-09-13T11:08:11.287Z,1.40
2022-09-13T11:10:29.585Z,1.60
2022-09-13T11:13:09.318Z,1.50
2022-09-13T11:15:28.522Z,3.47
2022-09-13T11:17:48.136Z,1.70
2022-09-13T11:20:22.843Z,1.70
2022-09-13T11:22:30.546Z,6.93
2022-09-13T11:24:47.515Z,2.40
2022-09-13T11:27:01.215Z,1.50
2022-09-13T11:29:26.054Z,1.30
2022-09-13T11:31:44.176Z,1.38
2022-09-13T11:34:06.943Z,1.10
2022-09-13T11:36:36.113Z,1.55
2022-09-13T11:38:52.922Z,1.55
2022-09-13T11:40:54.517Z,1.58
2022-09-13T11:43:05.538Z,1.45
2022-09-13T11:45:27.036Z,1.30
2022-09-13T11:47:56.763Z,1.30
2022-09-13T11:50:19.583Z,1.20
2022-09-13T11:52:40.179Z,1.00
2022-09-13T11:55:00.485Z,1.10
2022-09-13T11:57:12.370Z,1.05
2022-09-13T11:59:30.855Z,1.08
2022-09-13T12:01:39.840Z,0.95
2022-09-13T12:04:00.955Z,1.23
2022-09-13T12:06:11.588Z,1.80
2022-09-13T12:08:19.888Z,1.00
2022-09-13T12:10:21.511Z,1.40
2022-09-13T12:12:26.600Z,1.20
2022-09-13T12:14:34.665Z,1.00
2022-09-13T12:16:44.923Z,0.80
2022-09-13T12:18:50.822Z,0.80
2022-09-13T12:21:07.394Z,1.10
2022-09-13T12:23:20.626Z,1.20
2022-09-13T12:25:31.086Z,1.00
2022-09-13T12:27:47.550Z,0.93
2022-09-13T12:29:53.681Z,1.10
2022-09-13T12:32:03.592Z,1.10
2022-09-13T12:34:10.034Z,1.00
2022-09-13T12:36:39.891Z,0.90
2022-09-13T12:39:06.395Z,1.35
2022-09-13T12:41:28.307Z,1.00
2022-09-13T12:44:09.419Z,1.40
2022-09-13T12:46:34.402Z,1.00
2022-09-13T12:48:49.321Z,1.00
2022-09-13T12:51:03.987Z,1.13
2022-09-13T12:53:23.489Z,1.02
2022-09-13T12:55:54.356Z,1.23
2022-09-13T12:58:01.895Z,1.38
2022-09-13T13:00:21.248Z,1.40
2022-09-13T13:02:35.024Z,1.10
2022-09-13T13:04:37.398Z,1.40
2022-09-13T13:06:49.389Z,1.27
2022-09-13T13:08:54.505Z,1.10
2022-09-13T13:11:09.782Z,1.20
2022-09-13T13:13:14.435Z,1.20
2022-09-13T13:15:16.055Z,0.90
2022-09-13T13:17:48.972Z,1.48
2022-09-13T13:19:50.660Z,1.10
2022-09-13T13:21:54.324Z,1.20
2022-09-13T13:24:18.920Z,1.48
2022-09-13T13:26:24.016Z,1.00
2022-09-13T13:28:44.178Z,1.10
2022-09-13T13:30:54.784Z,1.25
2022-09-13T13:33:13.280Z,1.20
2022-09-13T13:35:32.424Z,1.33
2022-09-13T13:37:37.259Z,1.30
2022-09-13T13:39:47.704Z,1.30
2022-09-13T13:41:53.307Z,1.23
2022-09-13T13:43:55.218Z,1.17
2022-09-13T13:45:59.914Z,1.40
2022-09-13T13:48:15.492Z,1.27
2022-09-13T13:50:19.639Z,1.00
2022-09-13T13:52:25.402Z,1.13
2022-09-13T13:54:51.591Z,1.08
2022-09-13T13:56:53.430Z,1.30
2022-09-13T13:59:13.006Z,1.10
2022-09-13T14:01:28.682Z,1.20
2022-09-13T14:04:08.374Z,1.20
2022-09-13T14:06:10.000Z,1.30
2022-09-13T14:08:24.522Z,1.00
2022-09-13T14:10:30.343Z,1.10
2022-09-13T14:13:04.021Z,1.30
2022-09-13T14:15:35.593Z,1.20
2022-09-13T14:17:52.454Z,1.20
2022-09-13T14:20:04.429Z,1.10
2022-09-13T14:22:19.872Z,1.20
2022-09-13T14:24:24.731Z,1.20
2022-09-13T14:26:28.627Z,1.20
2022-09-13T14:28:32.641Z,1.05
2022-09-13T14:30:39.265Z,1.23
2022-09-13T14:32:44.586Z,1.20
2022-09-13T14:35:06.227Z,1.33
2022-09-13T14:37:18.399Z,1.10
2022-09-13T14:39:22.480Z,1.40
2022-09-13T14:41:34.823Z,1.70
2022-09-13T14:43:37.335Z,1.50
2022-09-13T14:45:39.273Z,1.20
2022-09-13T14:47:55.163Z,1.10
2022-09-13T14:50:04.402Z,1.10
2022-09-13T14:52:14.899Z,1.30
2022-09-13T14:54:29.159Z,1.10
2022-09-13T14:56:45.552Z,1.30
2022-09-13T14:58:56.505Z,1.10
2022-09-13T15:01:03.203Z,1.20
2022-09-13T15:03:12.938Z,1.25
2022-09-13T15:05:18.213Z,1.33
2022-09-13T15:07:32.289Z,1.10
2022-09-13T15:09:34.900Z,1.17
2022-09-13T15:11:54.346Z,1.20
2022-09-13T15:14:17.336Z,1.20
2022-09-13T15:16:29.848Z,1.20
2022-09-13T15:18:36.774Z,1.40
2022-09-13T15:20:53.545Z,1.77
2022-09-13T15:22:55.724Z,1.63
2022-09-13T15:25:00.363Z,2.00
2022-09-13T15:27:07.876Z,1.98
2022-09-13T15:29:18.312Z,2.00
2022-09-13T15:31:21.561Z,1.55
2022-09-13T15:33:32.845Z,1.60
2022-09-13T15:35:41.189Z,1.45
2022-09-13T15:37:43.206Z,1.63
2022-09-13T15:39:50.368Z,1.50
2022-09-13T15:41:57.398Z,1.25
2022-09-13T15:44:01.959Z,1.83
2022-09-13T15:46:04.818Z,4.05
2022-09-13T15:48:07.245Z,2.85
2022-09-13T15:50:40.376Z,1.77
2022-09-13T15:52:43.338Z,4.32
2022-09-13T15:54:49.129Z,2.58
2022-09-13T15:56:51.849Z,2.00
2022-09-13T15:58:53.565Z,2.20
2022-09-13T16:00:55.247Z,2.90
2022-09-13T16:02:57.005Z,2.63
2022-09-13T16:04:59.132Z,3.63
2022-09-13T16:07:00.757Z,4.22
2022-09-13T16:09:05.875Z,4.88
2022-09-13T16:11:08.331Z,6.05
2022-09-13T16:13:10.052Z,6.10
2022-09-13T16:15:13.001Z,4.85
2022-09-13T16:17:23.761Z,3.65
2022-09-13T16:19:26.146Z,4.00
2022-09-13T16:21:29.808Z,1.88
2022-09-13T16:23:31.428Z,2.57
2022-09-13T16:25:34.954Z,1.40
2022-09-13T16:27:37.346Z,1.37
2022-09-13T16:29:39.061Z,1.33
2022-09-13T16:31:41.160Z,1.60
2022-09-13T16:33:43.413Z,1.47
2022-09-13T16:35:45.569Z,1.17
2022-09-13T16:37:51.342Z,1.40
2022-09-13T16:39:57.445Z,1.50
2022-09-13T16:41:59.206Z,1.27
2022-09-13T16:44:01.961Z,1.47
2022-09-13T16:46:09.047Z,1.20
2022-09-13T16:48:11.413Z,1.37
2022-09-13T16:50:13.897Z,1.30
2022-09-13T16:52:15.644Z,1.70
2022-09-13T16:54:17.478Z,1.10
2022-09-13T16:56:21.709Z,1.67
2022-09-13T16:58:23.520Z,1.60
2022-09-13T17:00:28.559Z,1.50
2022-09-13T17:02:31.023Z,1.60
2022-09-13T17:04:32.942Z,1.40
2022-09-13T17:06:34.715Z,1.27
2022-09-13T17:08:38.448Z,2.00
2022-09-13T17:10:40.361Z,1.20
2022-09-13T17:12:42.074Z,1.67
2022-09-13T17:14:47.332Z,1.40
2022-09-13T17:16:54.428Z,1.30
2022-09-13T17:19:01.908Z,1.47
2022-09-13T17:21:03.640Z,1.50
2022-09-13T17:23:05.270Z,1.30
2022-09-13T17:25:10.118Z,1.30
2022-09-13T17:27:11.933Z,1.47
2022-09-13T17:29:14.689Z,1.40
2022-09-13T17:31:16.942Z,1.87
2022-09-13T17:33:19.869Z,1.43
2022-09-13T17:35:22.880Z,1.50
2022-09-13T17:37:25.074Z,1.37
2022-09-13T17:39:26.960Z,1.47
2022-09-13T17:41:30.250Z,1.27
2022-09-13T17:43:34.855Z,1.60
2022-09-13T17:45:36.730Z,1.63
2022-09-13T17:47:38.382Z,1.60
2022-09-13T17:49:40.048Z,1.50
2022-09-13T17:51:41.925Z,1.50
2022-09-13T17:54:05.824Z,1.63
2022-09-13T17:56:08.220Z,1.60
2022-09-13T17:58:09.949Z,1.50
2022-09-13T18:00:13.547Z,1.40
2022-09-13T18:02:15.727Z,1.33
2022-09-13T18:04:19.511Z,1.30
2022-09-13T18:06:21.425Z,1.33
2022-09-13T18:08:24.130Z,1.53
2022-09-13T18:10:49.308Z,1.20
2022-09-13T18:12:47.819Z,1.33
2022-09-13T18:14:49.549Z,1.30
2022-09-13T18:16:55.560Z,1.20
2022-09-13T18:18:59.197Z,1.23
2022-09-13T18:21:01.079Z,1.30
2022-09-13T18:23:02.922Z,1.47
2022-09-13T18:25:05.240Z,1.60
2022-09-13T18:27:07.170Z,1.40
2022-09-13T18:29:13.839Z,1.40
2022-09-13T18:31:17.765Z,1.50
2022-09-13T18:33:21.103Z,1.27
2022-09-13T18:35:22.766Z,1.30
2022-09-13T18:37:24.619Z,1.47
2022-09-13T18:39:26.299Z,1.60
2022-09-13T18:41:31.725Z,1.50
2022-09-13T18:43:35.310Z,1.30
2022-09-13T18:45:36.993Z,1.70
2022-09-13T18:47:38.752Z,1.30
2022-09-13T18:49:40.428Z,1.80
2022-09-13T18:51:43.910Z,1.53
2022-09-13T18:53:47.064Z,1.60
2022-09-13T18:55:49.024Z,1.80
2022-09-13T18:57:50.737Z,2.30
2022-09-13T18:59:52.448Z,1.60
2022-09-13T19:01:54.228Z,1.90
2022-09-13T19:04:20.197Z,1.70
2022-09-13T19:06:25.944Z,1.80
2022-09-13T19:08:27.570Z,1.70
2022-09-13T19:10:32.112Z,1.50
2022-09-13T19:12:33.770Z,1.70
2022-09-13T19:14:35.405Z,1.70
2022-09-13T19:16:37.049Z,1.90
2022-09-13T19:18:40.170Z,1.67
2022-09-13T19:20:41.817Z,1.93
2022-09-13T19:22:46.224Z,2.00
2022-09-13T19:24:48.363Z,2.00
2022-09-13T19:26:52.356Z,1.53
2022-09-13T19:28:57.209Z,1.80
2022-09-13T19:31:10.005Z,1.87
2022-09-13T19:33:11.734Z,1.90
2022-09-13T19:35:13.585Z,1.80
2022-09-13T19:37:15.506Z,1.53
2022-09-13T19:39:17.328Z,1.97
2022-09-13T19:41:20.894Z,1.87
2022-09-13T19:43:22.919Z,2.10
2022-09-13T19:45:25.434Z,2.17
2022-09-13T19:48:12.926Z,2.17
2022-09-13T19:49:49.804Z,2.73
2022-09-13T19:51:52.401Z,2.03
2022-09-13T19:53:57.702Z,1.87
2022-09-13T19:55:59.861Z,1.60
2022-09-13T19:58:01.483Z,1.70
2022-09-13T20:00:04.333Z,1.90
2022-09-13T20:02:06.858Z,1.50
2022-09-13T20:04:11.957Z,1.80
2022-09-13T20:06:14.030Z,1.67
2022-09-13T20:08:16.067Z,1.70
2022-09-13T20:10:17.684Z,1.80
2022-09-13T20:12:23.720Z,2.10
2022-09-13T20:14:25.406Z,1.70
2022-09-13T20:16:32.594Z,1.70
2022-09-13T20:18:34.209Z,2.00
2022-09-13T20:20:36.304Z,1.70
2022-09-13T20:22:37.949Z,2.70
2022-09-13T20:24:39.763Z,2.03
2022-09-13T20:26:41.866Z,1.67
2022-09-13T20:28:43.910Z,2.10
2022-09-13T20:30:53.653Z,1.80
2022-09-13T20:32:55.464Z,1.70
2022-09-13T20:34:57.452Z,1.70
2022-09-13T20:36:59.193Z,1.63
2022-09-13T20:39:03.372Z,2.03
2022-09-13T20:41:11.758Z,1.90
2022-09-13T20:43:14.793Z,1.80
2022-09-13T20:45:16.674Z,3.60
2022-09-13T20:47:18.304Z,1.93
2022-09-13T20:49:19.927Z,2.00
2022-09-13T20:51:25.239Z,1.80
2022-09-13T20:53:28.109Z,1.50
2022-09-13T20:55:29.790Z,1.93
2022-09-13T20:57:31.433Z,1.90
2022-09-13T20:59:33.050Z,1.90
2022-09-13T21:01:35.078Z,1.80
2022-09-13T21:03:43.578Z,2.03
2022-09-13T21:05:45.428Z,1.70
2022-09-13T21:08:05.826Z,1.90
2022-09-13T21:10:07.952Z,1.80
2022-09-13T21:12:10.447Z,1.97
2022-09-13T21:14:12.033Z,1.70
2022-09-13T21:16:16.424Z,2.33
2022-09-13T21:18:18.046Z,1.90
2022-09-13T21:20:19.677Z,2.10
2022-09-13T21:22:21.385Z,1.77
2022-09-13T21:24:23.072Z,2.00
2022-09-13T21:26:26.845Z,2.17
2022-09-13T21:28:29.014Z,2.00
2022-09-13T21:30:30.869Z,1.87
2022-09-13T21:32:32.514Z,1.90
2022-09-13T21:34:34.241Z,1.60
2022-09-13T21:36:36.001Z,2.10
2022-09-13T21:38:38.401Z,1.70
2022-09-13T21:40:41.166Z,2.10
2022-09-13T21:42:42.806Z,2.00
2022-09-13T21:44:45.070Z,2.00
2022-09-13T21:46:46.880Z,2.20
2022-09-13T21:48:51.925Z,2.00
2022-09-13T21:50:53.830Z,2.10
2022-09-13T21:52:58.815Z,1.80
2022-09-13T21:55:00.478Z,2.00
2022-09-13T21:57:02.119Z,2.27
2022-09-13T21:59:06.885Z,1.70
2022-09-13T22:01:12.041Z,1.87
2022-09-13T22:03:13.715Z,1.77
2022-09-13T22:05:15.365Z,1.97
2022-09-13T22:07:17.486Z,2.10
2022-09-13T22:09:20.862Z,1.80
2022-09-13T22:11:25.145Z,2.13
2022-09-13T22:13:26.801Z,1.87
2022-09-13T22:15:28.419Z,2.10
2022-09-13T22:17:30.617Z,2.37
2022-09-13T22:19:32.424Z,2.20
2022-09-13T22:21:36.282Z,1.70
2022-09-13T22:23:38.062Z,1.90
2022-09-13T22:25:41.894Z,2.23
2022-09-13T22:27:43.624Z,1.90
2022-09-13T22:29:45.594Z,2.23
2022-09-13T22:31:49.659Z,2.30
2022-09-13T22:33:52.054Z,2.30
2022-09-13T22:36:06.346Z,1.80
2022-09-13T22:38:08.997Z,1.97
2022-09-13T22:40:10.902Z,1.50
2022-09-13T22:42:12.685Z,2.10
2022-09-13T22:44:14.466Z,1.67
2022-09-13T22:46:20.101Z,2.10
2022-09-13T22:48:22.723Z,2.00
2022-09-13T22:50:24.621Z,2.23
2022-09-13T22:52:26.217Z,2.00
2022-09-13T22:54:28.507Z,2.67
2022-09-13T22:56:32.408Z,2.50
2022-09-13T22:58:34.883Z,2.33
2022-09-13T23:00:36.527Z,2.10
2022-09-13T23:02:38.196Z,2.23
2022-09-13T23:04:39.794Z,2.20
2022-09-13T23:06:43.770Z,2.57
2022-09-13T23:08:47.497Z,2.10
2022-09-13T23:10:49.252Z,2.30
2022-09-13T23:12:51.057Z,1.90
2022-09-13T23:14:52.761Z,1.83
2022-09-13T23:16:54.997Z,2.20
2022-09-13T23:18:57.220Z,2.00
2022-09-13T23:20:59.589Z,2.90
2022-09-13T23:23:01.233Z,1.97
2022-09-13T23:25:03.182Z,2.23
2022-09-13T23:27:05.113Z,2.10
2022-09-13T23:29:06.970Z,2.00
2022-09-13T23:31:14.626Z,2.53
2022-09-13T23:33:16.770Z,2.10
2022-09-13T23:35:18.662Z,2.40
2022-09-13T23:37:20.465Z,2.23
2022-09-13T23:39:22.967Z,2.00
2022-09-13T23:41:25.903Z,2.07
2022-09-13T23:43:27.589Z,2.27
2022-09-13T23:45:29.797Z,2.30
2022-09-13T23:47:31.629Z,1.80
2022-09-13T23:49:33.272Z,2.17
2022-09-13T23:51:35.079Z,2.00
2022-09-13T23:53:37.709Z,2.57
2022-09-13T23:55:39.472Z,2.23
2022-09-13T23:57:41.236Z,2.17
2022-09-13T23:59:42.937Z,1.80
